sensor_id;sensor_type;location;lat;lon;timestamp;pressure;altitude;pressure_sealevel;temperature;humidity
42945;BME280;28584;42.636;23.294;2022-10-16T00:01:21;82103.13;;;5.66;100.00
42945;BME280;28584;42.636;23.294;2022-10-16T00:03:48;82037.00;;;5.59;100.00
42945;BME280;28584;42.636;23.294;2022-10-16T00:06:15;82174.69;;;5.55;100.00
42945;BME280;28584;42.636;23.294;2022-10-16T00:08:41;82072.13;;;5.55;100.00
42945;BME280;28584;42.636;23.294;2022-10-16T00:13:35;82192.25;;;5.40;100.00
42945;BME280;28584;42.636;23.294;2022-10-16T00:16:01;82311.63;;;5.37;100.00
42945;BME280;28584;42.636;23.294;2022-10-16T00:18:27;82518.03;;;5.26;100.00
42945;BME280;28584;42.636;23.294;2022-10-16T00:20:53;82739.81;;;5.10;100.00
42945;BME280;28584;42.636;23.294;2022-10-16T00:23:19;82654.81;;;5.07;100.00
42945;BME280;28584;42.636;23.294;2022-10-16T00:25:44;82025.03;;;5.16;100.00
42945;BME280;28584;42.636;23.294;2022-10-16T00:28:10;81657.47;;;5.24;100.00
42945;BME280;28584;42.636;23.294;2022-10-16T00:30:38;81601.59;;;5.14;100.00
42945;BME280;28584;42.636;23.294;2022-10-16T00:33:04;80908.34;;;5.24;100.00
42945;BME280;28584;42.636;23.294;2022-10-16T00:35:30;80599.50;;;5.27;100.00
42945;BME280;28584;42.636;23.294;2022-10-16T00:37:56;80647.56;;;5.21;100.00
42945;BME280;28584;42.636;23.294;2022-10-16T00:40:21;80884.44;;;5.08;100.00
42945;BME280;28584;42.636;23.294;2022-10-16T00:42:46;81092.16;;;5.00;100.00
42945;BME280;28584;42.636;23.294;2022-10-16T00:45:12;81191.34;;;4.94;100.00
42945;BME280;28584;42.636;23.294;2022-10-16T00:47:42;81216.38;;;4.88;100.00
42945;BME280;28584;42.636;23.294;2022-10-16T00:50:34;81250.13;;;4.83;100.00
42945;BME280;28584;42.636;23.294;2022-10-16T00:53:01;81203.59;;;4.85;100.00
42945;BME280;28584;42.636;23.294;2022-10-16T00:55:27;81112.50;;;4.93;100.00
42945;BME280;28584;42.636;23.294;2022-10-16T00:57:55;81049.72;;;5.01;100.00
42945;BME280;28584;42.636;23.294;2022-10-16T01:00:23;80979.63;;;4.99;100.00
42945;BME280;28584;42.636;23.294;2022-10-16T01:02:57;80908.13;;;5.04;100.00
42945;BME280;28584;42.636;23.294;2022-10-16T01:05:30;81006.97;;;5.15;100.00
42945;BME280;28584;42.636;23.294;2022-10-16T01:08:09;81227.47;;;5.13;100.00
42945;BME280;28584;42.636;23.294;2022-10-16T01:10:40;81519.94;;;5.22;100.00
42945;BME280;28584;42.636;23.294;2022-10-16T01:13:09;81777.53;;;5.21;100.00
42945;BME280;28584;42.636;23.294;2022-10-16T01:18:13;82254.31;;;5.20;100.00
42945;BME280;28584;42.636;23.294;2022-10-16T01:20:45;82265.09;;;5.18;100.00
42945;BME280;28584;42.636;23.294;2022-10-16T01:23:21;82257.00;;;5.24;100.00
42945;BME280;28584;42.636;23.294;2022-10-16T01:31:11;82040.44;;;5.52;100.00
42945;BME280;28584;42.636;23.294;2022-10-16T01:33:42;82013.41;;;5.60;100.00
42945;BME280;28584;42.636;23.294;2022-10-16T01:36:15;81827.84;;;5.58;100.00
42945;BME280;28584;42.636;23.294;2022-10-16T01:38:43;81626.75;;;5.61;100.00
42945;BME280;28584;42.636;23.294;2022-10-16T01:41:14;81591.03;;;5.59;100.00
42945;BME280;28584;42.636;23.294;2022-10-16T01:43:48;81478.25;;;5.65;100.00
42945;BME280;28584;42.636;23.294;2022-10-16T01:46:17;81319.16;;;5.57;100.00
42945;BME280;28584;42.636;23.294;2022-10-16T01:48:43;81231.47;;;5.56;100.00
42945;BME280;28584;42.636;23.294;2022-10-16T01:51:12;81037.09;;;5.60;100.00
42945;BME280;28584;42.636;23.294;2022-10-16T01:53:39;80775.16;;;5.68;100.00
42945;BME280;28584;42.636;23.294;2022-10-16T01:56:09;80654.22;;;5.75;100.00
42945;BME280;28584;42.636;23.294;2022-10-16T01:58:45;80718.44;;;5.70;100.00
42945;BME280;28584;42.636;23.294;2022-10-16T02:01:15;80633.28;;;5.75;100.00
42945;BME280;28584;42.636;23.294;2022-10-16T02:03:43;80706.50;;;5.63;100.00
42945;BME280;28584;42.636;23.294;2022-10-16T02:06:10;80830.13;;;5.55;100.00
42945;BME280;28584;42.636;23.294;2022-10-16T02:08:36;80858.63;;;5.48;100.00
42945;BME280;28584;42.636;23.294;2022-10-16T02:11:04;80803.91;;;5.51;100.00
42945;BME280;28584;42.636;23.294;2022-10-16T02:13:41;80624.38;;;5.56;100.00
42945;BME280;28584;42.636;23.294;2022-10-16T02:16:10;80456.31;;;5.60;100.00
42945;BME280;28584;42.636;23.294;2022-10-16T02:18:36;80215.44;;;5.63;100.00
42945;BME280;28584;42.636;23.294;2022-10-16T02:21:14;80425.63;;;5.49;100.00
42945;BME280;28584;42.636;23.294;2022-10-16T02:26:24;80668.34;;;5.24;100.00
42945;BME280;28584;42.636;23.294;2022-10-16T02:28:56;80123.53;;;5.49;100.00
42945;BME280;28584;42.636;23.294;2022-10-16T02:31:31;79810.59;;;5.67;100.00
42945;BME280;28584;42.636;23.294;2022-10-16T02:34:00;79831.69;;;5.63;100.00
42945;BME280;28584;42.636;23.294;2022-10-16T02:36:27;79830.84;;;5.66;100.00
42945;BME280;28584;42.636;23.294;2022-10-16T02:38:52;80105.69;;;5.58;100.00
42945;BME280;28584;42.636;23.294;2022-10-16T02:41:21;80473.63;;;5.44;100.00
42945;BME280;28584;42.636;23.294;2022-10-16T02:43:46;80844.19;;;5.31;100.00
42945;BME280;28584;42.636;23.294;2022-10-16T02:46:11;81059.44;;;5.22;100.00
42945;BME280;28584;42.636;23.294;2022-10-16T02:48:37;81127.50;;;5.23;100.00
42945;BME280;28584;42.636;23.294;2022-10-16T02:51:02;81361.63;;;5.12;100.00
42945;BME280;28584;42.636;23.294;2022-10-16T02:53:28;81119.31;;;5.29;100.00
42945;BME280;28584;42.636;23.294;2022-10-16T02:55:53;81242.66;;;5.32;100.00
42945;BME280;28584;42.636;23.294;2022-10-16T02:58:18;81545.44;;;5.33;100.00
42945;BME280;28584;42.636;23.294;2022-10-16T03:00:44;82215.19;;;5.23;100.00
42945;BME280;28584;42.636;23.294;2022-10-16T03:03:09;82346.72;;;5.27;100.00
42945;BME280;28584;42.636;23.294;2022-10-16T03:05:35;82802.66;;;5.23;100.00
42945;BME280;28584;42.636;23.294;2022-10-16T03:08:00;83552.94;;;5.27;100.00
42945;BME280;28584;42.636;23.294;2022-10-16T03:10:26;84242.50;;;5.24;100.00
42945;BME280;28584;42.636;23.294;2022-10-16T03:12:51;85066.31;;;5.18;100.00
42945;BME280;28584;42.636;23.294;2022-10-16T03:15:17;85708.66;;;5.14;100.00
42945;BME280;28584;42.636;23.294;2022-10-16T03:17:42;86411.78;;;5.09;100.00
42945;BME280;28584;42.636;23.294;2022-10-16T03:20:08;87564.50;;;5.03;100.00
42945;BME280;28584;42.636;23.294;2022-10-16T03:22:34;88150.97;;;4.92;100.00
42945;BME280;28584;42.636;23.294;2022-10-16T03:24:59;88706.13;;;4.80;100.00
42945;BME280;28584;42.636;23.294;2022-10-16T03:27:24;89462.50;;;4.75;100.00
42945;BME280;28584;42.636;23.294;2022-10-16T03:29:50;89448.50;;;4.65;100.00
42945;BME280;28584;42.636;23.294;2022-10-16T03:32:15;89413.19;;;4.63;100.00
42945;BME280;28584;42.636;23.294;2022-10-16T03:34:41;88909.31;;;4.68;100.00
42945;BME280;28584;42.636;23.294;2022-10-16T03:37:06;88569.06;;;4.68;100.00
42945;BME280;28584;42.636;23.294;2022-10-16T03:39:31;89104.75;;;4.70;100.00
42945;BME280;28584;42.636;23.294;2022-10-16T03:41:57;89765.47;;;4.51;100.00
42945;BME280;28584;42.636;23.294;2022-10-16T03:44:22;90201.88;;;4.38;100.00
42945;BME280;28584;42.636;23.294;2022-10-16T03:46:47;90645.00;;;4.25;100.00
42945;BME280;28584;42.636;23.294;2022-10-16T03:49:13;90652.41;;;4.16;100.00
42945;BME280;28584;42.636;23.294;2022-10-16T03:51:38;90524.41;;;4.08;100.00
42945;BME280;28584;42.636;23.294;2022-10-16T03:54:04;90303.97;;;3.99;100.00
42945;BME280;28584;42.636;23.294;2022-10-16T03:56:29;89596.97;;;3.88;100.00
42945;BME280;28584;42.636;23.294;2022-10-16T03:58:54;88951.38;;;3.86;100.00
42945;BME280;28584;42.636;23.294;2022-10-16T04:01:20;88386.19;;;3.77;100.00
42945;BME280;28584;42.636;23.294;2022-10-16T04:03:45;88000.97;;;3.74;100.00
42945;BME280;28584;42.636;23.294;2022-10-16T04:06:11;87704.81;;;3.70;100.00
42945;BME280;28584;42.636;23.294;2022-10-16T04:08:36;87490.25;;;3.82;100.00
42945;BME280;28584;42.636;23.294;2022-10-16T04:11:02;86950.63;;;3.84;100.00
42945;BME280;28584;42.636;23.294;2022-10-16T04:13:28;87283.03;;;4.01;100.00
42945;BME280;28584;42.636;23.294;2022-10-16T04:15:54;88568.59;;;4.06;100.00
42945;BME280;28584;42.636;23.294;2022-10-16T04:18:19;88876.88;;;4.31;100.00
42945;BME280;28584;42.636;23.294;2022-10-16T04:20:44;89875.19;;;4.43;100.00
42945;BME280;28584;42.636;23.294;2022-10-16T04:23:10;91327.00;;;4.53;100.00
42945;BME280;28584;42.636;23.294;2022-10-16T04:25:35;94431.97;;;4.53;100.00
42945;BME280;28584;42.636;23.294;2022-10-16T04:28:01;95646.91;;;4.58;100.00
42945;BME280;28584;42.636;23.294;2022-10-16T04:30:26;98072.78;;;4.62;100.00
42945;BME280;28584;42.636;23.294;2022-10-16T04:32:52;101143.97;;;4.65;100.00
42945;BME280;28584;42.636;23.294;2022-10-16T04:35:19;102868.63;;;4.59;100.00
42945;BME280;28584;42.636;23.294;2022-10-16T04:37:44;103789.38;;;4.52;100.00
42945;BME280;28584;42.636;23.294;2022-10-16T04:40:10;104262.78;;;4.55;100.00
42945;BME280;28584;42.636;23.294;2022-10-16T04:42:35;104229.84;;;4.59;100.00
42945;BME280;28584;42.636;23.294;2022-10-16T04:45:01;104093.25;;;4.60;100.00
42945;BME280;28584;42.636;23.294;2022-10-16T04:47:26;104309.19;;;4.61;100.00
42945;BME280;28584;42.636;23.294;2022-10-16T04:49:51;104363.78;;;4.68;100.00
42945;BME280;28584;42.636;23.294;2022-10-16T04:52:17;104500.03;;;4.71;100.00
42945;BME280;28584;42.636;23.294;2022-10-16T04:54:44;104329.03;;;4.82;100.00
42945;BME280;28584;42.636;23.294;2022-10-16T04:57:10;104197.16;;;5.00;100.00
42945;BME280;28584;42.636;23.294;2022-10-16T04:59:36;104129.94;;;5.23;100.00
42945;BME280;28584;42.636;23.294;2022-10-16T05:02:01;103817.09;;;5.38;100.00
42945;BME280;28584;42.636;23.294;2022-10-16T05:04:27;103520.59;;;5.52;100.00
42945;BME280;28584;42.636;23.294;2022-10-16T05:06:52;103332.09;;;5.63;100.00
42945;BME280;28584;42.636;23.294;2022-10-16T05:09:17;103171.53;;;5.74;100.00
42945;BME280;28584;42.636;23.294;2022-10-16T05:11:43;103181.59;;;5.82;100.00
42945;BME280;28584;42.636;23.294;2022-10-16T05:14:08;102802.19;;;5.97;100.00
42945;BME280;28584;42.636;23.294;2022-10-16T05:16:33;102400.28;;;6.10;100.00
42945;BME280;28584;42.636;23.294;2022-10-16T05:18:59;101830.84;;;6.35;100.00
42945;BME280;28584;42.636;23.294;2022-10-16T05:21:24;100889.44;;;6.72;100.00
42945;BME280;28584;42.636;23.294;2022-10-16T05:23:49;100312.41;;;7.09;100.00
42945;BME280;28584;42.636;23.294;2022-10-16T05:26:15;99628.03;;;7.45;100.00
42945;BME280;28584;42.636;23.294;2022-10-16T05:28:40;97227.28;;;7.73;100.00
42945;BME280;28584;42.636;23.294;2022-10-16T05:31:08;94049.03;;;7.98;100.00
42945;BME280;28584;42.636;23.294;2022-10-16T05:33:33;89639.47;;;8.22;100.00
42945;BME280;28584;42.636;23.294;2022-10-16T05:36:07;85655.69;;;8.53;100.00
42945;BME280;28584;42.636;23.294;2022-10-16T05:38:36;82970.34;;;8.84;100.00
42945;BME280;28584;42.636;23.294;2022-10-16T05:41:02;83528.91;;;8.94;100.00
42945;BME280;28584;42.636;23.294;2022-10-16T05:43:28;91874.81;;;8.65;100.00
42945;BME280;28584;42.636;23.294;2022-10-16T05:46:02;102429.53;;;8.24;100.00
42945;BME280;28584;42.636;23.294;2022-10-16T05:48:28;106206.59;;;8.47;100.00
42945;BME280;28584;42.636;23.294;2022-10-16T05:51:02;108801.59;;;9.08;100.00
42945;BME280;28584;42.636;23.294;2022-10-16T05:53:30;120000.09;;;9.68;100.00
42945;BME280;28584;42.636;23.294;2022-10-16T05:55:56;149409.63;;;10.30;100.00
42945;BME280;28584;42.636;23.294;2022-10-16T05:58:22;161432.19;;;10.81;100.00
42945;BME280;28584;42.636;23.294;2022-10-16T06:00:59;161533.78;;;11.19;100.00
42945;BME280;28584;42.636;23.294;2022-10-16T06:03:25;161601.94;;;11.45;100.00
42945;BME280;28584;42.636;23.294;2022-10-16T06:05:51;161453.63;;;10.89;100.00
42945;BME280;28584;42.636;23.294;2022-10-16T06:08:18;161075.56;;;9.47;100.00
42945;BME280;28584;42.636;23.294;2022-10-16T06:10:44;161087.59;;;9.52;100.00
42945;BME280;28584;42.636;23.294;2022-10-16T06:13:11;161332.03;;;10.43;100.00
42945;BME280;28584;42.636;23.294;2022-10-16T06:15:38;161516.41;;;11.12;100.00
42945;BME280;28584;42.636;23.294;2022-10-16T06:18:04;161607.31;;;11.47;100.00
42945;BME280;28584;42.636;23.294;2022-10-16T06:20:30;161675.56;;;11.72;100.00
42945;BME280;28584;42.636;23.294;2022-10-16T06:22:57;161787.88;;;12.14;100.00
42945;BME280;28584;42.636;23.294;2022-10-16T06:25:22;161865.47;;;12.43;100.00
42945;BME280;28584;42.636;23.294;2022-10-16T06:27:47;161948.41;;;12.74;100.00
42945;BME280;28584;42.636;23.294;2022-10-16T06:30:13;162023.41;;;13.02;100.00
42945;BME280;28584;42.636;23.294;2022-10-16T06:32:38;162086.34;;;13.26;100.00
42945;BME280;28584;42.636;23.294;2022-10-16T06:35:04;162107.75;;;13.34;100.00
42945;BME280;28584;42.636;23.294;2022-10-16T06:37:29;162111.78;;;13.35;100.00
42945;BME280;28584;42.636;23.294;2022-10-16T06:39:54;162118.47;;;13.38;100.00
42945;BME280;28584;42.636;23.294;2022-10-16T06:42:20;162118.47;;;13.38;100.00
42945;BME280;28584;42.636;23.294;2022-10-16T06:44:45;162083.66;;;13.25;100.00
42945;BME280;28584;42.636;23.294;2022-10-16T06:47:11;162090.38;;;13.27;100.00
42945;BME280;28584;42.636;23.294;2022-10-16T06:49:36;161988.59;;;12.89;100.00
42945;BME280;28584;42.636;23.294;2022-10-16T06:52:02;162007.34;;;12.96;100.00
42945;BME280;28584;42.636;23.294;2022-10-16T06:54:28;161976.53;;;12.85;100.00
42945;BME280;28584;42.636;23.294;2022-10-16T06:56:53;161980.56;;;12.86;100.00
42945;BME280;28584;42.636;23.294;2022-10-16T06:59:20;162004.63;;;12.95;100.00
42945;BME280;28584;42.636;23.294;2022-10-16T07:01:46;162043.50;;;13.10;100.00
42945;BME280;28584;42.636;23.294;2022-10-16T07:04:11;162038.13;;;13.08;100.00
42945;BME280;28584;42.636;23.294;2022-10-16T07:06:36;162097.06;;;13.30;100.00
42945;BME280;28584;42.636;23.294;2022-10-16T07:09:04;162014.06;;;12.99;100.00
42945;BME280;28584;42.636;23.294;2022-10-16T07:11:30;161927.03;;;12.66;100.00
42945;BME280;28584;42.636;23.294;2022-10-16T07:13:55;161992.56;;;12.91;100.00
42945;BME280;28584;42.636;23.294;2022-10-16T07:16:23;162075.59;;;13.22;100.00
42945;BME280;28584;42.636;23.294;2022-10-16T07:18:49;162157.31;;;13.52;96.21
42945;BME280;28584;42.636;23.294;2022-10-16T07:21:18;162188.13;;;13.64;93.93
42945;BME280;28584;42.636;23.294;2022-10-16T07:23:49;162193.44;;;13.66;95.15
42945;BME280;28584;42.636;23.294;2022-10-16T07:26:15;162263.09;;;13.92;89.00
42945;BME280;28584;42.636;23.294;2022-10-16T07:28:42;162273.81;;;13.96;89.18
42945;BME280;28584;42.636;23.294;2022-10-16T07:31:11;162354.19;;;14.26;85.08
42945;BME280;28584;42.636;23.294;2022-10-16T07:33:37;162367.63;;;14.31;81.44
42945;BME280;28584;42.636;23.294;2022-10-16T07:36:04;162442.66;;;14.59;77.57
42945;BME280;28584;42.636;23.294;2022-10-16T07:38:29;162485.56;;;14.75;79.12
42945;BME280;28584;42.636;23.294;2022-10-16T07:41:05;162466.78;;;14.68;74.45
42945;BME280;28584;42.636;23.294;2022-10-16T07:43:32;162446.69;;;14.61;75.70
42945;BME280;28584;42.636;23.294;2022-10-16T07:45:57;162528.41;;;14.91;74.52
42945;BME280;28584;42.636;23.294;2022-10-16T07:48:26;162590.09;;;15.14;71.81
42945;BME280;28584;42.636;23.294;2022-10-16T07:50:51;162574.00;;;15.08;70.51
42945;BME280;28584;42.636;23.294;2022-10-16T07:53:17;162549.91;;;14.99;71.53
42945;BME280;28584;42.636;23.294;2022-10-16T07:55:42;162506.97;;;14.83;74.77
42945;BME280;28584;42.636;23.294;2022-10-16T07:58:07;162560.59;;;15.03;71.55
42945;BME280;28584;42.636;23.294;2022-10-16T08:00:33;162500.28;;;14.81;71.63
42945;BME280;28584;42.636;23.294;2022-10-16T08:02:58;162545.88;;;14.98;71.26
42945;BME280;28584;42.636;23.294;2022-10-16T08:05:31;162515.03;;;14.86;71.35
42945;BME280;28584;42.636;23.294;2022-10-16T08:07:57;162429.28;;;14.54;75.97
42945;BME280;28584;42.636;23.294;2022-10-16T08:10:24;162350.22;;;14.25;75.84
42945;BME280;28584;42.636;23.294;2022-10-16T08:12:51;162303.28;;;14.07;85.15
42945;BME280;28584;42.636;23.294;2022-10-16T08:15:17;162364.97;;;14.30;82.46
42945;BME280;28584;42.636;23.294;2022-10-16T08:17:42;162389.03;;;14.39;81.60
42945;BME280;28584;42.636;23.294;2022-10-16T08:20:08;162464.06;;;14.67;79.04
42945;BME280;28584;42.636;23.294;2022-10-16T08:22:34;162461.41;;;14.66;75.20
42945;BME280;28584;42.636;23.294;2022-10-16T08:24:59;162468.09;;;14.69;79.84
42945;BME280;28584;42.636;23.294;2022-10-16T08:27:25;162576.66;;;15.09;75.83
42945;BME280;28584;42.636;23.294;2022-10-16T08:29:50;162584.72;;;15.12;71.65
42945;BME280;28584;42.636;23.294;2022-10-16T08:32:16;162697.38;;;15.54;69.78
42945;BME280;28584;42.636;23.294;2022-10-16T08:34:41;162667.88;;;15.43;67.48
42945;BME280;28584;42.636;23.294;2022-10-16T08:37:06;162603.47;;;15.19;68.77
42945;BME280;28584;42.636;23.294;2022-10-16T08:39:37;162584.72;;;15.12;72.14
42945;BME280;28584;42.636;23.294;2022-10-16T08:43:12;162525.75;;;14.90;71.20
42945;BME280;28584;42.636;23.294;2022-10-16T08:48:06;162359.59;;;14.28;77.67
42945;BME280;28584;42.636;23.294;2022-10-16T08:50:38;162348.88;;;14.24;73.99
42945;BME280;28584;42.636;23.294;2022-10-16T08:53:04;162328.72;;;14.17;70.43
42945;BME280;28584;42.636;23.294;2022-10-16T08:58:19;162303.28;;;14.07;70.67
42945;BME280;28584;42.636;23.294;2022-10-16T09:01:04;162319.34;;;14.13;68.60
42945;BME280;28584;42.636;23.294;2022-10-16T09:17:03;162241.63;;;13.84;61.76
42945;BME280;28584;42.636;23.294;2022-10-16T09:21:44;162164.00;;;13.55;63.36
42945;BME280;28584;42.636;23.294;2022-10-16T09:24:22;162122.47;;;13.39;61.58
42945;BME280;28584;42.636;23.294;2022-10-16T09:26:49;162083.66;;;13.25;60.24
42945;BME280;28584;42.636;23.294;2022-10-16T09:29:17;162072.94;;;13.21;61.67
42945;BME280;28584;42.636;23.294;2022-10-16T09:31:45;162054.19;;;13.14;62.44
42945;BME280;28584;42.636;23.294;2022-10-16T09:36:56;162072.94;;;13.21;59.99
42945;BME280;28584;42.636;23.294;2022-10-16T09:39:22;162046.16;;;13.11;60.03
42945;BME280;28584;42.636;23.294;2022-10-16T09:41:48;162040.84;;;13.09;61.07
42945;BME280;28584;42.636;23.294;2022-10-16T09:44:26;162015.38;;;12.99;60.54
42945;BME280;28584;42.636;23.294;2022-10-16T09:47:12;162054.19;;;13.14;59.68
42945;BME280;28584;42.636;23.294;2022-10-16T09:49:50;162086.34;;;13.26;60.63
42945;BME280;28584;42.636;23.294;2022-10-16T09:52:18;162102.38;;;13.32;60.53
42945;BME280;28584;42.636;23.294;2022-10-16T09:54:55;162071.59;;;13.20;60.14
42945;BME280;28584;42.636;23.294;2022-10-16T09:57:21;162083.66;;;13.25;61.30
42945;BME280;28584;42.636;23.294;2022-10-16T09:59:49;162056.88;;;13.15;60.59
42945;BME280;28584;42.636;23.294;2022-10-16T10:02:17;162060.88;;;13.16;60.85
42945;BME280;28584;42.636;23.294;2022-10-16T10:04:53;162098.38;;;13.30;60.40
42945;BME280;28584;42.636;23.294;2022-10-16T10:07:35;162121.13;;;13.39;59.93
42945;BME280;28584;42.636;23.294;2022-10-16T10:10:05;162130.53;;;13.42;58.90
42945;BME280;28584;42.636;23.294;2022-10-16T10:12:32;162141.22;;;13.46;59.76
42945;BME280;28584;42.636;23.294;2022-10-16T10:15:10;162142.59;;;13.47;59.32
42945;BME280;28584;42.636;23.294;2022-10-16T10:17:56;162158.63;;;13.53;61.00
42945;BME280;28584;42.636;23.294;2022-10-16T10:20:29;162166.66;;;13.56;60.34
42945;BME280;28584;42.636;23.294;2022-10-16T10:22:56;162165.34;;;13.55;60.71
42945;BME280;28584;42.636;23.294;2022-10-16T10:30:59;162177.34;;;13.60;58.73
42945;BME280;28584;42.636;23.294;2022-10-16T10:33:47;162162.63;;;13.54;60.00
42945;BME280;28584;42.636;23.294;2022-10-16T10:36:39;162196.09;;;13.67;59.30
42945;BME280;28584;42.636;23.294;2022-10-16T10:39:19;162209.53;;;13.72;57.81
42945;BME280;28584;42.636;23.294;2022-10-16T10:47:52;162244.34;;;13.85;57.82
42945;BME280;28584;42.636;23.294;2022-10-16T10:50:33;162276.47;;;13.97;57.24
42945;BME280;28584;42.636;23.294;2022-10-16T11:01:50;162330.06;;;14.17;55.44
42945;BME280;28584;42.636;23.294;2022-10-16T11:04:43;162358.22;;;14.28;55.78
42945;BME280;28584;42.636;23.294;2022-10-16T11:07:34;162378.34;;;14.35;54.33
42945;BME280;28584;42.636;23.294;2022-10-16T11:10:03;162370.28;;;14.32;52.75
42945;BME280;28584;42.636;23.294;2022-10-16T11:12:38;162399.75;;;14.43;54.05
42945;BME280;28584;42.636;23.294;2022-10-16T11:15:14;162403.78;;;14.45;53.59
42945;BME280;28584;42.636;23.294;2022-10-16T11:17:48;162386.38;;;14.38;52.95
42945;BME280;28584;42.636;23.294;2022-10-16T11:21:20;162394.44;;;14.41;52.66
42945;BME280;28584;42.636;23.294;2022-10-16T11:23:31;162407.81;;;14.46;52.54
42945;BME280;28584;42.636;23.294;2022-10-16T11:26:03;162394.44;;;14.41;53.34
42945;BME280;28584;42.636;23.294;2022-10-16T11:28:36;162415.84;;;14.49;51.61
42945;BME280;28584;42.636;23.294;2022-10-16T11:34:00;162421.22;;;14.51;49.27
42945;BME280;28584;42.636;23.294;2022-10-16T11:36:49;162445.31;;;14.60;48.62
42945;BME280;28584;42.636;23.294;2022-10-16T11:39:20;162482.84;;;14.74;48.19
42945;BME280;28584;42.636;23.294;2022-10-16T11:42:03;162511.00;;;14.85;47.34
42945;BME280;28584;42.636;23.294;2022-10-16T11:47:36;162519.06;;;14.88;46.43
42945;BME280;28584;42.636;23.294;2022-10-16T11:55:40;162529.78;;;14.92;46.87
42945;BME280;28584;42.636;23.294;2022-10-16T12:01:06;162547.19;;;14.98;47.45
42945;BME280;28584;42.636;23.294;2022-10-16T12:08:59;162557.91;;;15.02;46.69
42945;BME280;28584;42.636;23.294;2022-10-16T12:14:59;162551.19;;;15.00;45.66
42945;BME280;28584;42.636;23.294;2022-10-16T12:19:21;162555.22;;;15.01;46.28
42945;BME280;28584;42.636;23.294;2022-10-16T12:21:47;162561.91;;;15.04;47.15
42945;BME280;28584;42.636;23.294;2022-10-16T12:26:46;162560.59;;;15.03;46.99
42945;BME280;28584;42.636;23.294;2022-10-16T12:31:48;162571.31;;;15.07;48.13
42945;BME280;28584;42.636;23.294;2022-10-16T12:34:44;162560.59;;;15.03;48.17
42945;BME280;28584;42.636;23.294;2022-10-16T12:37:11;162586.06;;;15.13;48.17
42945;BME280;28584;42.636;23.294;2022-10-16T12:39:37;162579.38;;;15.10;46.90
42945;BME280;28584;42.636;23.294;2022-10-16T12:42:30;162579.38;;;15.10;46.44
42945;BME280;28584;42.636;23.294;2022-10-16T12:44:57;162574.00;;;15.08;46.77
42945;BME280;28584;42.636;23.294;2022-10-16T12:49:55;162579.38;;;15.10;46.71
42945;BME280;28584;42.636;23.294;2022-10-16T12:54:59;162607.50;;;15.21;48.34
42945;BME280;28584;42.636;23.294;2022-10-16T12:57:44;162616.91;;;15.24;48.56
42945;BME280;28584;42.636;23.294;2022-10-16T13:00:22;162619.56;;;15.25;47.08
42945;BME280;28584;42.636;23.294;2022-10-16T13:11:43;162598.13;;;15.17;47.63
42945;BME280;28584;42.636;23.294;2022-10-16T13:22:03;162606.19;;;15.20;47.56
42945;BME280;28584;42.636;23.294;2022-10-16T13:30:01;162622.25;;;15.26;47.72
42945;BME280;28584;42.636;23.294;2022-10-16T13:32:27;162602.16;;;15.19;48.70
42945;BME280;28584;42.636;23.294;2022-10-16T13:34:53;162606.19;;;15.20;50.26
42945;BME280;28584;42.636;23.294;2022-10-16T13:37:21;162579.38;;;15.10;51.17
42945;BME280;28584;42.636;23.294;2022-10-16T13:39:47;162582.03;;;15.11;51.22
42945;BME280;28584;42.636;23.294;2022-10-16T13:42:29;162539.13;;;14.95;52.11
42945;BME280;28584;42.636;23.294;2022-10-16T13:44:55;162511.00;;;14.85;52.63
42945;BME280;28584;42.636;23.294;2022-10-16T13:47:26;162474.78;;;14.71;53.27
42945;BME280;28584;42.636;23.294;2022-10-16T13:50:09;162482.84;;;14.74;53.51
42945;BME280;28584;42.636;23.294;2022-10-16T13:52:36;162458.75;;;14.65;53.79
42945;BME280;28584;42.636;23.294;2022-10-16T13:55:04;162431.94;;;14.55;53.67
42945;BME280;28584;42.636;23.294;2022-10-16T13:57:30;162395.72;;;14.42;54.56
42945;BME280;28584;42.636;23.294;2022-10-16T13:59:55;162370.28;;;14.32;55.67
42945;BME280;28584;42.636;23.294;2022-10-16T14:02:32;162331.44;;;14.18;56.76
42945;BME280;28584;42.636;23.294;2022-10-16T14:05:03;162323.38;;;14.15;57.87
42945;BME280;28584;42.636;23.294;2022-10-16T14:07:31;162301.91;;;14.07;57.47
42945;BME280;28584;42.636;23.294;2022-10-16T14:10:03;162260.38;;;13.91;58.41
42945;BME280;28584;42.636;23.294;2022-10-16T14:12:29;162192.09;;;13.65;60.30
42945;BME280;28584;42.636;23.294;2022-10-16T14:14:57;162170.69;;;13.57;59.16
42945;BME280;28584;42.636;23.294;2022-10-16T14:17:32;162107.75;;;13.34;60.17
42945;BME280;28584;42.636;23.294;2022-10-16T14:20:03;162062.25;;;13.17;61.68
42945;BME280;28584;42.636;23.294;2022-10-16T14:25:00;162012.72;;;12.98;68.97
42945;BME280;28584;42.636;23.294;2022-10-16T14:27:33;161972.53;;;12.83;67.91
42945;BME280;28584;42.636;23.294;2022-10-16T14:30:11;161949.78;;;12.75;69.87
42945;BME280;28584;42.636;23.294;2022-10-16T14:32:40;161925.66;;;12.66;72.39
42945;BME280;28584;42.636;23.294;2022-10-16T14:35:22;161865.47;;;12.43;76.05
42945;BME280;28584;42.636;23.294;2022-10-16T14:37:52;161842.72;;;12.35;76.36
42945;BME280;28584;42.636;23.294;2022-10-16T14:40:18;161837.38;;;12.33;81.87
42945;BME280;28584;42.636;23.294;2022-10-16T14:42:44;161840.06;;;12.34;70.39
42945;BME280;28584;42.636;23.294;2022-10-16T14:45:10;161864.16;;;12.43;65.84
42945;BME280;28584;42.636;23.294;2022-10-16T14:47:50;161872.13;;;12.46;67.04
42945;BME280;28584;42.636;23.294;2022-10-16T14:50:17;161845.44;;;12.36;73.48